createdAt,value
2019-01-26T00:00:41.871Z,99.60
2019-01-26T00:03:09.403Z,99.49
2019-01-26T00:05:36.882Z,99.72
2019-01-26T00:08:04.345Z,99.93
2019-01-26T00:10:33.058Z,100.00
2019-01-26T00:13:00.598Z,99.96
2019-01-26T00:15:28.045Z,99.57
2019-01-26T00:17:55.495Z,99.49
2019-01-26T00:20:22.968Z,99.93
2019-01-26T00:22:50.423Z,100.00
2019-01-26T00:25:17.915Z,99.86
2019-01-26T00:27:45.365Z,99.98
2019-01-26T00:30:13.597Z,99.97
2019-01-26T00:32:41.038Z,99.94
2019-01-26T00:35:08.496Z,100.00
2019-01-26T00:37:35.961Z,100.00
2019-01-26T00:40:03.399Z,100.00
2019-01-26T00:42:30.954Z,100.00
2019-01-26T00:44:58.434Z,100.00
2019-01-26T00:47:26.060Z,100.00
2019-01-26T00:49:53.595Z,100.00
2019-01-26T00:52:21.156Z,100.00
2019-01-26T00:54:48.711Z,100.00
2019-01-26T00:57:16.451Z,100.00
2019-01-26T00:59:44.014Z,100.00
2019-01-26T01:02:11.492Z,100.00
2019-01-26T01:04:38.957Z,100.00
2019-01-26T01:07:06.456Z,100.00
2019-01-26T01:09:33.925Z,100.00
2019-01-26T01:12:01.449Z,100.00
2019-01-26T01:14:29.138Z,100.00
2019-01-26T01:16:56.733Z,100.00
2019-01-26T01:19:24.218Z,100.00
2019-01-26T01:21:51.733Z,100.00
2019-01-26T01:24:19.296Z,100.00
2019-01-26T01:26:46.821Z,100.00
2019-01-26T01:29:14.293Z,100.00
2019-01-26T01:31:41.831Z,100.00
2019-01-26T01:34:09.388Z,100.00
2019-01-26T01:36:37.004Z,100.00
2019-01-26T01:39:04.466Z,100.00
2019-01-26T01:41:31.946Z,100.00
2019-01-26T01:43:59.425Z,100.00
2019-01-26T01:46:26.932Z,100.00
2019-01-26T01:48:54.432Z,100.00
2019-01-26T01:51:21.920Z,100.00
2019-01-26T01:53:49.378Z,100.00
2019-01-26T01:56:17.424Z,100.00
2019-01-26T01:58:44.896Z,100.00
2019-01-26T02:01:12.378Z,100.00
2019-01-26T02:03:39.891Z,100.00
2019-01-26T02:06:07.434Z,100.00
2019-01-26T02:08:34.890Z,100.00
2019-01-26T02:11:02.357Z,100.00
2019-01-26T02:13:29.829Z,100.00
2019-01-26T02:15:57.384Z,100.00
2019-01-26T02:18:24.865Z,100.00
2019-01-26T02:20:52.359Z,100.00
2019-01-26T02:23:19.839Z,100.00
2019-01-26T02:25:47.318Z,100.00
2019-01-26T02:28:15.753Z,100.00
2019-01-26T02:30:43.214Z,100.00
2019-01-26T02:33:10.680Z,100.00
2019-01-26T02:35:38.201Z,100.00
2019-01-26T02:38:05.649Z,100.00
2019-01-26T02:40:33.117Z,100.00
2019-01-26T02:43:00.609Z,100.00
2019-01-26T02:45:28.128Z,100.00
2019-01-26T02:47:55.617Z,100.00
2019-01-26T02:50:23.134Z,100.00
2019-01-26T02:52:50.641Z,100.00
2019-01-26T02:55:18.175Z,100.00
2019-01-26T02:57:45.614Z,100.00
2019-01-26T03:00:15.710Z,100.00
2019-01-26T03:02:43.179Z,100.00
2019-01-26T03:05:10.650Z,100.00
2019-01-26T03:07:38.115Z,100.00
2019-01-26T03:10:05.559Z,100.00
2019-01-26T03:12:33.029Z,100.00
2019-01-26T03:15:00.502Z,100.00
2019-01-26T03:17:27.968Z,100.00
2019-01-26T03:19:55.457Z,100.00
2019-01-26T03:22:23.013Z,100.00
2019-01-26T03:24:50.476Z,100.00
2019-01-26T03:27:18.372Z,100.00
2019-01-26T03:29:45.829Z,100.00
2019-01-26T03:32:13.394Z,100.00
2019-01-26T03:34:40.905Z,100.00
2019-01-26T03:37:09.192Z,100.00
2019-01-26T03:39:36.751Z,100.00
2019-01-26T03:42:04.245Z,100.00
2019-01-26T03:44:31.731Z,100.00
2019-01-26T03:46:59.193Z,100.00
2019-01-26T03:49:26.658Z,100.00
2019-01-26T03:51:54.130Z,100.00
2019-01-26T03:54:21.660Z,100.00
2019-01-26T03:56:49.139Z,100.00
2019-01-26T03:59:16.610Z,100.00
2019-01-26T04:01:44.055Z,100.00
2019-01-26T04:04:11.530Z,100.00
2019-01-26T04:06:39.014Z,100.00
2019-01-26T04:09:06.499Z,100.00
2019-01-26T04:11:33.964Z,100.00
2019-01-26T04:14:01.426Z,100.00
2019-01-26T04:16:28.896Z,100.00
2019-01-26T04:18:56.369Z,100.00
2019-01-26T04:21:23.847Z,100.00
2019-01-26T04:23:51.358Z,100.00
2019-01-26T04:26:19.279Z,100.00
2019-01-26T04:28:46.767Z,100.00
2019-01-26T04:31:14.259Z,100.00
2019-01-26T04:33:41.789Z,100.00
2019-01-26T04:36:09.281Z,100.00
2019-01-26T04:38:36.720Z,100.00
2019-01-26T04:41:04.189Z,100.00
2019-01-26T04:43:31.690Z,100.00
2019-01-26T04:45:59.173Z,100.00
2019-01-26T04:48:26.638Z,100.00
2019-01-26T04:50:54.103Z,100.00
2019-01-26T04:53:21.615Z,100.00
2019-01-26T04:55:49.866Z,100.00
2019-01-26T04:58:17.332Z,100.00
2019-01-26T05:00:44.810Z,100.00
2019-01-26T05:03:12.299Z,100.00
2019-01-26T05:05:39.740Z,100.00
2019-01-26T05:08:07.243Z,100.00
2019-01-26T05:10:34.682Z,100.00
2019-01-26T05:13:02.149Z,100.00
2019-01-26T05:15:29.667Z,100.00
2019-01-26T05:17:57.167Z,100.00
2019-01-26T05:20:24.624Z,100.00
2019-01-26T05:22:52.129Z,100.00
2019-01-26T05:25:20.441Z,100.00
2019-01-26T05:27:47.912Z,100.00
2019-01-26T05:30:16.058Z,100.00
2019-01-26T05:32:43.534Z,100.00
2019-01-26T05:35:11.025Z,100.00
2019-01-26T05:37:38.513Z,100.00
2019-01-26T05:40:11.549Z,100.00
2019-01-26T05:42:39.015Z,100.00
2019-01-26T05:45:07.091Z,100.00
2019-01-26T05:47:34.600Z,100.00
2019-01-26T05:50:02.055Z,100.00
2019-01-26T05:52:29.543Z,100.00
2019-01-26T05:54:57.001Z,100.00
2019-01-26T05:57:24.448Z,100.00
2019-01-26T05:59:51.907Z,100.00
2019-01-26T06:02:19.346Z,100.00
2019-01-26T06:04:46.876Z,100.00
2019-01-26T06:07:14.319Z,100.00
2019-01-26T06:09:41.818Z,100.00
2019-01-26T06:12:09.271Z,100.00
2019-01-26T06:14:36.755Z,100.00
2019-01-26T06:17:04.238Z,100.00
2019-01-26T06:19:31.716Z,100.00
2019-01-26T06:21:59.208Z,100.00
2019-01-26T06:24:27.621Z,100.00
2019-01-26T06:26:55.173Z,100.00
2019-01-26T06:29:22.628Z,100.00
2019-01-26T06:31:50.124Z,100.00
2019-01-26T06:34:17.600Z,100.00
2019-01-26T06:36:45.066Z,100.00
2019-01-26T06:39:12.557Z,100.00
2019-01-26T06:41:40.016Z,100.00
2019-01-26T06:44:07.448Z,100.00
2019-01-26T06:46:34.997Z,100.00
2019-01-26T06:49:02.425Z,100.00
2019-01-26T06:51:29.901Z,100.00
2019-01-26T06:53:57.389Z,100.00
2019-01-26T06:56:24.831Z,100.00
2019-01-26T06:58:53.321Z,100.00
2019-01-26T07:01:20.865Z,100.00
2019-01-26T07:03:48.329Z,100.00
2019-01-26T07:06:16.049Z,100.00
2019-01-26T07:08:43.539Z,100.00
2019-01-26T07:11:10.987Z,100.00
2019-01-26T07:13:38.484Z,100.00
2019-01-26T07:16:05.981Z,100.00
2019-01-26T07:18:33.452Z,100.00
2019-01-26T07:21:01.039Z,100.00
2019-01-26T07:23:28.494Z,100.00
2019-01-26T07:25:55.954Z,100.00
2019-01-26T07:28:23.443Z,100.00
2019-01-26T07:30:50.969Z,100.00
2019-01-26T07:33:18.413Z,100.00
2019-01-26T07:35:45.859Z,100.00
2019-01-26T07:38:13.954Z,100.00
2019-01-26T07:40:40.886Z,100.00
2019-01-26T07:43:08.386Z,100.00
2019-01-26T07:45:35.829Z,100.00
2019-01-26T07:48:03.377Z,100.00
2019-01-26T07:50:30.812Z,100.00
2019-01-26T07:52:58.557Z,100.00
2019-01-26T07:55:26.013Z,100.00
2019-01-26T07:57:53.486Z,100.00
2019-01-26T08:00:21.932Z,100.00
2019-01-26T08:02:49.395Z,100.00
2019-01-26T08:05:16.839Z,100.00
2019-01-26T08:07:44.329Z,100.00
2019-01-26T08:10:11.903Z,100.00
2019-01-26T08:12:39.376Z,100.00
2019-01-26T08:15:06.843Z,100.00
2019-01-26T08:17:34.416Z,100.00
2019-01-26T08:20:01.887Z,100.00
2019-01-26T08:22:29.431Z,100.00
2019-01-26T08:24:56.959Z,100.00
2019-01-26T08:27:24.432Z,100.00
2019-01-26T08:29:51.889Z,100.00
2019-01-26T08:32:19.355Z,100.00
2019-01-26T08:34:46.787Z,100.00
2019-01-26T08:37:14.267Z,100.00
2019-01-26T08:39:41.721Z,100.00
2019-01-26T08:42:10.011Z,100.00
2019-01-26T08:44:37.516Z,100.00
2019-01-26T08:47:05.020Z,100.00
2019-01-26T08:49:32.584Z,100.00
2019-01-26T08:52:00.131Z,100.00
2019-01-26T08:54:27.613Z,100.00
2019-01-26T08:56:55.101Z,100.00
2019-01-26T08:59:22.606Z,100.00
2019-01-26T09:01:50.097Z,100.00
2019-01-26T09:04:17.582Z,100.00
2019-01-26T09:06:45.073Z,100.00
2019-01-26T09:09:12.608Z,100.00
2019-01-26T09:11:40.090Z,100.00
2019-01-26T09:14:08.298Z,100.00
2019-01-26T09:16:35.761Z,100.00
2019-01-26T09:19:03.232Z,100.00
2019-01-26T09:21:30.755Z,100.00
2019-01-26T09:23:59.196Z,100.00
2019-01-26T09:26:26.760Z,100.00
2019-01-26T09:28:54.280Z,100.00
2019-01-26T09:31:21.767Z,100.00
2019-01-26T09:33:49.230Z,100.00
2019-01-26T09:36:16.717Z,100.00
2019-01-26T09:38:44.190Z,100.00
2019-01-26T09:41:11.633Z,100.00
2019-01-26T09:43:39.108Z,100.00
2019-01-26T09:46:06.666Z,100.00
2019-01-26T09:48:34.136Z,100.00
2019-01-26T09:51:01.584Z,100.00
2019-01-26T09:53:29.055Z,100.00
2019-01-26T09:55:56.559Z,100.00
2019-01-26T09:58:24.314Z,100.00
2019-01-26T10:00:51.861Z,100.00
2019-01-26T10:03:19.341Z,100.00
2019-01-26T10:05:46.843Z,100.00
2019-01-26T10:08:15.453Z,100.00
2019-01-26T10:10:43.117Z,100.00
2019-01-26T10:13:10.740Z,100.00
2019-01-26T10:15:38.201Z,100.00
2019-01-26T10:18:05.720Z,100.00
2019-01-26T10:20:34.042Z,100.00
2019-01-26T10:23:02.600Z,100.00
2019-01-26T10:25:30.347Z,100.00
2019-01-26T10:27:57.797Z,100.00
2019-01-26T10:30:25.260Z,100.00
2019-01-26T10:32:52.734Z,100.00
2019-01-26T10:35:20.217Z,100.00
2019-01-26T10:37:47.707Z,100.00
2019-01-26T10:40:21.578Z,100.00
2019-01-26T10:42:49.053Z,100.00
2019-01-26T10:45:17.411Z,100.00
2019-01-26T10:47:45.005Z,100.00
2019-01-26T10:50:12.467Z,100.00
2019-01-26T10:52:39.953Z,100.00
2019-01-26T10:55:07.409Z,100.00
2019-01-26T10:57:34.897Z,100.00
2019-01-26T11:00:02.401Z,100.00
2019-01-26T11:02:29.825Z,100.00
2019-01-26T11:04:57.346Z,100.00
2019-01-26T11:07:25.603Z,100.00
2019-01-26T11:09:53.155Z,100.00
2019-01-26T11:12:20.594Z,100.00
2019-01-26T11:14:48.131Z,100.00
2019-01-26T11:17:15.598Z,100.00
2019-01-26T11:19:43.121Z,100.00
2019-01-26T11:22:10.594Z,100.00
2019-01-26T11:24:38.080Z,100.00
2019-01-26T11:27:05.624Z,100.00
2019-01-26T11:29:33.363Z,100.00
2019-01-26T11:32:00.831Z,100.00
2019-01-26T11:34:28.292Z,100.00
2019-01-26T11:36:55.788Z,100.00
2019-01-26T11:39:23.223Z,100.00
2019-01-26T11:41:50.715Z,100.00
2019-01-26T11:44:18.163Z,100.00
2019-01-26T11:46:45.654Z,100.00
2019-01-26T11:49:15.146Z,100.00
2019-01-26T11:51:40.598Z,100.00
2019-01-26T11:54:08.126Z,100.00
2019-01-26T11:56:38.439Z,100.00
2019-01-26T11:59:05.902Z,100.00
2019-01-26T12:01:35.883Z,100.00
2019-01-26T12:04:03.864Z,100.00
2019-01-26T12:06:31.301Z,100.00
2019-01-26T12:08:58.788Z,100.00
2019-01-26T12:11:27.370Z,100.00
2019-01-26T12:13:53.766Z,100.00
2019-01-26T12:16:26.909Z,100.00
2019-01-26T12:18:48.768Z,100.00
2019-01-26T12:21:16.242Z,100.00
2019-01-26T12:23:43.694Z,100.00
2019-01-26T12:26:11.126Z,99.95
2019-01-26T12:28:38.581Z,99.85
2019-01-26T12:31:06.039Z,99.57
2019-01-26T12:33:33.984Z,99.57
2019-01-26T12:36:01.437Z,99.51
2019-01-26T12:38:29.976Z,99.41
2019-01-26T12:40:57.466Z,99.17
2019-01-26T12:43:24.965Z,99.02
2019-01-26T12:45:52.425Z,98.88
2019-01-26T12:48:19.893Z,98.81
2019-01-26T12:50:47.366Z,98.70
2019-01-26T12:53:14.863Z,98.48
2019-01-26T12:55:42.298Z,98.60
2019-01-26T12:58:09.742Z,98.34
2019-01-26T13:00:37.204Z,98.02
2019-01-26T13:03:04.631Z,98.10
2019-01-26T13:05:32.218Z,97.96
2019-01-26T13:07:59.682Z,97.73
2019-01-26T13:10:38.704Z,97.69
2019-01-26T13:13:06.181Z,97.86
2019-01-26T13:15:33.720Z,97.64
2019-01-26T13:18:01.182Z,97.70
2019-01-26T13:20:28.661Z,97.77
2019-01-26T13:22:56.112Z,97.75
2019-01-26T13:25:23.562Z,97.54
2019-01-26T13:27:51.004Z,97.58
2019-01-26T13:30:19.069Z,97.24
2019-01-26T13:32:46.690Z,97.15
2019-01-26T13:35:14.057Z,97.40
2019-01-26T13:37:41.492Z,97.15
2019-01-26T13:40:24.588Z,97.12
2019-01-26T13:42:52.093Z,97.32
2019-01-26T13:45:21.439Z,97.21
2019-01-26T13:47:48.911Z,97.18
2019-01-26T13:50:16.393Z,97.19
2019-01-26T13:52:43.839Z,97.08
2019-01-26T13:55:15.730Z,96.78
2019-01-26T13:57:43.180Z,96.54
2019-01-26T14:00:11.453Z,96.56
2019-01-26T14:02:38.907Z,96.45
2019-01-26T14:05:06.377Z,96.58
2019-01-26T14:07:35.390Z,96.49
2019-01-26T14:10:02.895Z,96.52
2019-01-26T14:12:31.031Z,97.07
2019-01-26T14:14:58.495Z,97.17
2019-01-26T14:17:25.931Z,96.90
2019-01-26T14:19:53.419Z,96.88
2019-01-26T14:22:20.841Z,96.82
2019-01-26T14:24:48.345Z,96.10
2019-01-26T14:27:15.799Z,95.93
2019-01-26T14:29:43.239Z,95.58
2019-01-26T14:32:10.734Z,95.68
2019-01-26T14:34:38.256Z,95.61
2019-01-26T14:37:06.458Z,95.71
2019-01-26T14:39:33.924Z,95.65
2019-01-26T14:42:01.410Z,95.83
2019-01-26T14:44:28.873Z,95.92
2019-01-26T14:46:56.312Z,96.03
2019-01-26T14:49:23.757Z,96.37
2019-01-26T14:51:52.076Z,96.32
2019-01-26T14:54:19.555Z,96.66
2019-01-26T14:56:46.980Z,96.63
2019-01-26T14:59:14.433Z,96.60
2019-01-26T15:01:41.905Z,96.74
2019-01-26T15:04:09.414Z,96.86
2019-01-26T15:06:37.157Z,97.06
2019-01-26T15:09:04.591Z,96.87
2019-01-26T15:11:32.031Z,97.01
2019-01-26T15:13:59.556Z,97.23
2019-01-26T15:16:27.048Z,97.14
2019-01-26T15:18:54.472Z,97.44
2019-01-26T15:21:21.935Z,97.54
2019-01-26T15:23:49.522Z,97.81
2019-01-26T15:26:17.034Z,98.12
2019-01-26T15:28:44.499Z,98.18
2019-01-26T15:31:11.957Z,98.16
2019-01-26T15:33:39.422Z,98.21
2019-01-26T15:36:09.101Z,98.28
2019-01-26T15:38:35.010Z,98.08
2019-01-26T15:41:02.480Z,98.29
2019-01-26T15:43:29.915Z,98.18
2019-01-26T15:45:57.414Z,98.05
2019-01-26T15:48:24.846Z,98.27
2019-01-26T15:50:52.340Z,98.16
2019-01-26T15:53:19.796Z,98.05
2019-01-26T15:55:47.266Z,97.88
2019-01-26T15:58:14.771Z,97.95
2019-01-26T16:00:42.235Z,97.91
2019-01-26T16:03:09.697Z,97.96
2019-01-26T16:05:38.143Z,97.78
2019-01-26T16:08:05.625Z,97.89
2019-01-26T16:10:33.208Z,97.71
2019-01-26T16:13:00.648Z,97.61
2019-01-26T16:15:28.135Z,97.30
2019-01-26T16:17:55.604Z,97.03
2019-01-26T16:20:23.078Z,97.17
2019-01-26T16:22:50.543Z,97.13
2019-01-26T16:25:17.995Z,97.11
2019-01-26T16:27:45.441Z,96.86
2019-01-26T16:30:15.614Z,96.84
2019-01-26T16:32:43.063Z,96.50
2019-01-26T16:35:10.574Z,96.22
2019-01-26T16:37:38.719Z,96.22
2019-01-26T16:40:07.719Z,96.55
2019-01-26T16:42:35.167Z,96.99
2019-01-26T16:45:02.714Z,96.80
2019-01-26T16:47:30.209Z,96.85
2019-01-26T16:49:57.644Z,97.17
2019-01-26T16:52:25.106Z,97.27
2019-01-26T16:54:52.555Z,97.71
2019-01-26T16:57:20.130Z,97.51
2019-01-26T16:59:47.613Z,97.56
2019-01-26T17:02:15.202Z,97.81
2019-01-26T17:04:42.651Z,97.52
2019-01-26T17:07:10.099Z,97.43
2019-01-26T17:09:37.550Z,97.25
2019-01-26T17:12:04.985Z,97.91
2019-01-26T17:14:32.462Z,98.75
2019-01-26T17:16:59.906Z,98.11
2019-01-26T17:19:27.420Z,97.51
2019-01-26T17:21:54.851Z,96.95
2019-01-26T17:24:22.288Z,96.94
2019-01-26T17:26:52.915Z,96.87
2019-01-26T17:29:17.483Z,96.74
2019-01-26T17:31:45.079Z,96.73
2019-01-26T17:34:12.553Z,96.97
2019-01-26T17:36:40.030Z,96.54
2019-01-26T17:39:07.571Z,96.55
2019-01-26T17:41:35.046Z,96.10
2019-01-26T17:44:02.518Z,96.13
2019-01-26T17:46:30.006Z,96.24
2019-01-26T17:48:57.448Z,95.99
2019-01-26T17:51:24.887Z,96.43
2019-01-26T17:53:52.375Z,96.10
2019-01-26T17:56:19.877Z,95.95
2019-01-26T17:58:47.307Z,95.83
2019-01-26T18:01:14.749Z,95.54
2019-01-26T18:03:42.211Z,96.00
2019-01-26T18:06:10.228Z,95.75
2019-01-26T18:08:39.478Z,95.64
2019-01-26T18:11:07.009Z,95.73
2019-01-26T18:13:34.483Z,95.39
2019-01-26T18:16:01.926Z,95.55
2019-01-26T18:18:29.369Z,95.66
2019-01-26T18:20:56.844Z,96.20
2019-01-26T18:23:24.659Z,96.03
2019-01-26T18:25:51.830Z,95.91
2019-01-26T18:28:19.279Z,95.92
2019-01-26T18:30:46.719Z,96.20
2019-01-26T18:33:14.222Z,96.23
2019-01-26T18:35:41.678Z,96.34
2019-01-26T18:38:09.142Z,95.85
2019-01-26T18:40:36.605Z,95.64
2019-01-26T18:43:04.091Z,95.88
2019-01-26T18:45:31.547Z,95.91
2019-01-26T18:47:59.000Z,95.79
2019-01-26T18:50:43.097Z,95.87
2019-01-26T18:53:11.131Z,95.62
2019-01-26T18:55:38.672Z,95.22
2019-01-26T18:58:08.513Z,95.31
2019-01-26T19:00:36.055Z,95.47
2019-01-26T19:03:22.148Z,95.75
2019-01-26T19:05:49.769Z,95.30
2019-01-26T19:08:17.285Z,95.83
2019-01-26T19:10:44.877Z,95.71
2019-01-26T19:13:12.415Z,95.58
2019-01-26T19:15:39.992Z,95.68
2019-01-26T19:18:07.553Z,95.36
2019-01-26T19:20:35.034Z,94.85
2019-01-26T19:23:02.672Z,95.21
2019-01-26T19:25:30.144Z,95.35
2019-01-26T19:27:57.594Z,95.70
2019-01-26T19:30:25.058Z,95.43
2019-01-26T19:32:52.508Z,95.64
2019-01-26T19:35:19.986Z,95.13
2019-01-26T19:37:47.463Z,94.70
2019-01-26T19:40:23.808Z,94.40
2019-01-26T19:42:52.078Z,94.44
2019-01-26T19:45:20.961Z,94.17
2019-01-26T19:47:48.488Z,94.17
2019-01-26T19:50:19.610Z,93.89
2019-01-26T19:52:47.067Z,93.79
2019-01-26T19:55:14.481Z,93.53
2019-01-26T19:57:42.688Z,93.34
2019-01-26T20:00:10.142Z,93.18
2019-01-26T20:02:37.606Z,93.20
2019-01-26T20:05:05.068Z,92.75
2019-01-26T20:07:32.498Z,92.89
2019-01-26T20:09:59.943Z,92.78
2019-01-26T20:12:27.393Z,92.70
2019-01-26T20:14:54.856Z,92.69
2019-01-26T20:17:22.345Z,92.23
2019-01-26T20:19:49.903Z,92.40
2019-01-26T20:22:17.470Z,91.90
2019-01-26T20:24:44.936Z,91.86
2019-01-26T20:27:13.429Z,92.02
2019-01-26T20:29:41.464Z,91.95
2019-01-26T20:32:09.042Z,92.07
2019-01-26T20:34:36.706Z,92.14
2019-01-26T20:37:04.308Z,92.17
2019-01-26T20:39:31.760Z,92.31
2019-01-26T20:41:59.358Z,92.41
2019-01-26T20:44:26.750Z,92.41
2019-01-26T20:46:54.227Z,92.34
2019-01-26T20:49:21.696Z,92.92
2019-01-26T20:51:49.166Z,92.85
2019-01-26T20:54:16.628Z,92.78
2019-01-26T20:56:44.086Z,93.21
2019-01-26T20:59:11.542Z,93.27
2019-01-26T21:01:39.101Z,93.38
2019-01-26T21:04:06.564Z,93.41
2019-01-26T21:06:34.048Z,93.56
2019-01-26T21:09:01.513Z,93.33
2019-01-26T21:11:31.279Z,93.16
2019-01-26T21:13:58.798Z,93.14
2019-01-26T21:16:26.265Z,92.89
2019-01-26T21:18:53.742Z,93.43
2019-01-26T21:21:21.207Z,93.25
2019-01-26T21:23:48.671Z,93.07
2019-01-26T21:26:16.215Z,92.83
2019-01-26T21:28:44.413Z,92.66
2019-01-26T21:31:12.073Z,92.49
2019-01-26T21:33:39.509Z,92.45
2019-01-26T21:36:06.968Z,92.50
2019-01-26T21:38:35.409Z,92.54
2019-01-26T21:41:03.070Z,92.81
2019-01-26T21:43:30.512Z,92.34
2019-01-26T21:45:58.231Z,92.39
2019-01-26T21:48:25.723Z,91.95
2019-01-26T21:50:53.287Z,91.85
2019-01-26T21:53:20.748Z,91.87
2019-01-26T21:55:48.310Z,91.76
2019-01-26T21:58:16.259Z,91.88
2019-01-26T22:00:44.607Z,91.52
2019-01-26T22:03:12.153Z,91.29
2019-01-26T22:05:39.592Z,91.26
2019-01-26T22:08:07.044Z,91.72
2019-01-26T22:10:34.512Z,91.23
2019-01-26T22:13:02.008Z,91.12
2019-01-26T22:15:29.457Z,91.19
2019-01-26T22:17:56.892Z,91.80
2019-01-26T22:20:24.381Z,91.68
2019-01-26T22:22:53.258Z,91.95
2019-01-26T22:25:20.796Z,92.15
2019-01-26T22:27:48.248Z,92.04
2019-01-26T22:30:21.608Z,92.17
2019-01-26T22:32:49.052Z,91.69
2019-01-26T22:35:16.774Z,91.61
2019-01-26T22:37:44.213Z,91.92
2019-01-26T22:40:11.694Z,91.81
2019-01-26T22:42:39.147Z,91.78
2019-01-26T22:45:06.650Z,91.76
2019-01-26T22:47:34.187Z,91.67
2019-01-26T22:50:01.637Z,91.45
2019-01-26T22:52:29.080Z,91.29
2019-01-26T22:54:56.575Z,91.13
2019-01-26T22:57:24.054Z,91.38
2019-01-26T22:59:52.324Z,91.54
2019-01-26T23:02:19.765Z,91.62
2019-01-26T23:04:48.069Z,92.01
2019-01-26T23:07:19.153Z,92.08
2019-01-26T23:09:48.098Z,92.58
2019-01-26T23:12:18.168Z,92.79
2019-01-26T23:15:01.135Z,93.10
2019-01-26T23:17:31.178Z,93.32
2019-01-26T23:19:59.406Z,93.49
2019-01-26T23:22:33.349Z,93.46
2019-01-26T23:25:16.975Z,93.82
2019-01-26T23:27:46.688Z,93.58
2019-01-26T23:30:25.943Z,93.39
2019-01-26T23:32:53.792Z,93.49
2019-01-26T23:35:21.209Z,93.29
2019-01-26T23:37:48.680Z,92.96
2019-01-26T23:40:17.207Z,92.98
2019-01-26T23:42:44.666Z,93.08
2019-01-26T23:45:12.172Z,92.68
2019-01-26T23:47:39.597Z,92.93
2019-01-26T23:50:07.032Z,92.83
2019-01-26T23:52:34.461Z,93.12
2019-01-26T23:55:02.064Z,93.05
2019-01-26T23:57:29.554Z,93.17
2019-01-26T23:59:56.971Z,93.13
